sensor_id;sensor_type;location;lat;lon;timestamp;temperature;humidity
13322;DHT22;6730;46.248;6.930;2023-02-15T00:01:18;5.50;95.90
13322;DHT22;6730;46.248;6.930;2023-02-15T00:03:44;5.50;95.90
13322;DHT22;6730;46.248;6.930;2023-02-15T00:06:09;5.40;96.00
13322;DHT22;6730;46.248;6.930;2023-02-15T00:08:35;5.30;96.40
13322;DHT22;6730;46.248;6.930;2023-02-15T00:11:11;5.30;96.50
13322;DHT22;6730;46.248;6.930;2023-02-15T00:13:38;5.30;96.40
13322;DHT22;6730;46.248;6.930;2023-02-15T00:16:08;5.40;96.30
13322;DHT22;6730;46.248;6.930;2023-02-15T00:18:34;5.60;95.60
13322;DHT22;6730;46.248;6.930;2023-02-15T00:21:05;5.70;95.60
13322;DHT22;6730;46.248;6.930;2023-02-15T00:23:31;5.60;95.80
13322;DHT22;6730;46.248;6.930;2023-02-15T00:26:23;5.40;96.00
13322;DHT22;6730;46.248;6.930;2023-02-15T00:28:49;5.50;96.10
13322;DHT22;6730;46.248;6.930;2023-02-15T00:31:14;5.90;95.60
13322;DHT22;6730;46.248;6.930;2023-02-15T00:33:40;5.70;95.80
13322;DHT22;6730;46.248;6.930;2023-02-15T00:36:07;5.30;96.30
13322;DHT22;6730;46.248;6.930;2023-02-15T00:38:34;5.10;96.50
13322;DHT22;6730;46.248;6.930;2023-02-15T00:41:02;5.00;96.40
13322;DHT22;6730;46.248;6.930;2023-02-15T00:43:29;4.90;96.30
13322;DHT22;6730;46.248;6.930;2023-02-15T00:45:55;5.00;96.50
13322;DHT22;6730;46.248;6.930;2023-02-15T00:48:21;5.00;96.80
13322;DHT22;6730;46.248;6.930;2023-02-15T00:50:50;5.20;96.60
13322;DHT22;6730;46.248;6.930;2023-02-15T00:53:16;5.30;96.60
13322;DHT22;6730;46.248;6.930;2023-02-15T00:55:42;5.40;96.30
13322;DHT22;6730;46.248;6.930;2023-02-15T00:58:09;5.50;96.30
13322;DHT22;6730;46.248;6.930;2023-02-15T01:00:35;5.40;96.70
13322;DHT22;6730;46.248;6.930;2023-02-15T01:03:01;5.50;96.40
13322;DHT22;6730;46.248;6.930;2023-02-15T01:05:27;5.20;96.40
13322;DHT22;6730;46.248;6.930;2023-02-15T01:07:52;5.20;96.70
13322;DHT22;6730;46.248;6.930;2023-02-15T01:10:18;5.20;96.80
13322;DHT22;6730;46.248;6.930;2023-02-15T01:12:44;5.50;96.00
13322;DHT22;6730;46.248;6.930;2023-02-15T01:15:10;5.60;95.80
13322;DHT22;6730;46.248;6.930;2023-02-15T01:17:35;5.40;96.40
13322;DHT22;6730;46.248;6.930;2023-02-15T01:20:02;5.50;96.30
13322;DHT22;6730;46.248;6.930;2023-02-15T01:22:27;5.30;96.50
13322;DHT22;6730;46.248;6.930;2023-02-15T01:24:53;5.20;96.60
13322;DHT22;6730;46.248;6.930;2023-02-15T01:27:18;5.20;96.50
13322;DHT22;6730;46.248;6.930;2023-02-15T01:29:44;5.30;96.40
13322;DHT22;6730;46.248;6.930;2023-02-15T01:32:10;5.50;96.20
13322;DHT22;6730;46.248;6.930;2023-02-15T01:34:35;5.40;96.40
13322;DHT22;6730;46.248;6.930;2023-02-15T01:37:01;5.60;96.20
13322;DHT22;6730;46.248;6.930;2023-02-15T01:39:27;5.70;95.80
13322;DHT22;6730;46.248;6.930;2023-02-15T01:41:52;5.40;96.30
13322;DHT22;6730;46.248;6.930;2023-02-15T01:44:56;5.10;96.70
13322;DHT22;6730;46.248;6.930;2023-02-15T01:47:35;4.80;96.90
13322;DHT22;6730;46.248;6.930;2023-02-15T01:50:11;4.70;96.90
13322;DHT22;6730;46.248;6.930;2023-02-15T01:55:32;4.60;97.70
13322;DHT22;6730;46.248;6.930;2023-02-15T01:57:59;4.50;97.80
13322;DHT22;6730;46.248;6.930;2023-02-15T02:00:25;4.70;97.50
13322;DHT22;6730;46.248;6.930;2023-02-15T02:02:53;4.80;97.50
13322;DHT22;6730;46.248;6.930;2023-02-15T02:05:20;4.90;96.90
13322;DHT22;6730;46.248;6.930;2023-02-15T02:07:46;5.10;96.60
13322;DHT22;6730;46.248;6.930;2023-02-15T02:10:17;4.70;96.90
13322;DHT22;6730;46.248;6.930;2023-02-15T02:12:45;4.70;97.20
13322;DHT22;6730;46.248;6.930;2023-02-15T02:15:12;4.80;97.00
13322;DHT22;6730;46.248;6.930;2023-02-15T02:35:00;5.30;96.00
13322;DHT22;6730;46.248;6.930;2023-02-15T02:40:18;5.20;96.10
13322;DHT22;6730;46.248;6.930;2023-02-15T02:43:18;5.00;96.10
13322;DHT22;6730;46.248;6.930;2023-02-15T02:45:57;4.80;96.40
13322;DHT22;6730;46.248;6.930;2023-02-15T02:48:26;4.70;96.60
13322;DHT22;6730;46.248;6.930;2023-02-15T02:50:53;4.60;96.70
13322;DHT22;6730;46.248;6.930;2023-02-15T02:53:18;4.50;96.60
13322;DHT22;6730;46.248;6.930;2023-02-15T02:55:57;4.60;96.70
13322;DHT22;6730;46.248;6.930;2023-02-15T02:58:29;4.60;96.80
13322;DHT22;6730;46.248;6.930;2023-02-15T03:01:09;4.60;96.70
13322;DHT22;6730;46.248;6.930;2023-02-15T03:03:41;4.80;96.30
13322;DHT22;6730;46.248;6.930;2023-02-15T03:06:16;4.90;96.50
13322;DHT22;6730;46.248;6.930;2023-02-15T03:08:48;5.00;96.10
13322;DHT22;6730;46.248;6.930;2023-02-15T03:11:15;5.10;95.70
13322;DHT22;6730;46.248;6.930;2023-02-15T03:13:41;5.10;95.90
13322;DHT22;6730;46.248;6.930;2023-02-15T03:16:09;5.10;95.60
13322;DHT22;6730;46.248;6.930;2023-02-15T03:18:56;5.00;95.80
13322;DHT22;6730;46.248;6.930;2023-02-15T03:24:06;5.50;95.20
13322;DHT22;6730;46.248;6.930;2023-02-15T03:26:34;5.30;95.50
13322;DHT22;6730;46.248;6.930;2023-02-15T03:29:00;5.30;95.40
13322;DHT22;6730;46.248;6.930;2023-02-15T03:31:31;5.60;95.30
13322;DHT22;6730;46.248;6.930;2023-02-15T03:34:03;5.60;95.20
13322;DHT22;6730;46.248;6.930;2023-02-15T03:36:50;5.20;95.70
13322;DHT22;6730;46.248;6.930;2023-02-15T03:41:57;5.10;95.70
13322;DHT22;6730;46.248;6.930;2023-02-15T03:44:30;5.00;96.00
13322;DHT22;6730;46.248;6.930;2023-02-15T03:47:05;5.00;95.60
13322;DHT22;6730;46.248;6.930;2023-02-15T03:49:35;5.10;95.50
13322;DHT22;6730;46.248;6.930;2023-02-15T03:52:02;5.00;95.60
13322;DHT22;6730;46.248;6.930;2023-02-15T03:54:32;4.90;95.90
13322;DHT22;6730;46.248;6.930;2023-02-15T03:57:10;4.80;96.20
13322;DHT22;6730;46.248;6.930;2023-02-15T03:59:55;4.70;96.50
13322;DHT22;6730;46.248;6.930;2023-02-15T04:05:26;4.70;96.00
13322;DHT22;6730;46.248;6.930;2023-02-15T04:07:52;4.90;95.90
13322;DHT22;6730;46.248;6.930;2023-02-15T04:10:17;4.80;95.80
13322;DHT22;6730;46.248;6.930;2023-02-15T04:13:01;4.90;96.00
13322;DHT22;6730;46.248;6.930;2023-02-15T04:15:27;4.80;95.90
13322;DHT22;6730;46.248;6.930;2023-02-15T04:18:11;5.00;95.70
13322;DHT22;6730;46.248;6.930;2023-02-15T04:20:37;5.00;95.70
13322;DHT22;6730;46.248;6.930;2023-02-15T04:23:21;4.70;96.30
13322;DHT22;6730;46.248;6.930;2023-02-15T04:26:05;4.70;96.60
13322;DHT22;6730;46.248;6.930;2023-02-15T04:28:31;4.70;96.50
13322;DHT22;6730;46.248;6.930;2023-02-15T04:30:57;4.80;96.30
13322;DHT22;6730;46.248;6.930;2023-02-15T04:33:23;4.80;96.70
13322;DHT22;6730;46.248;6.930;2023-02-15T04:35:48;4.50;96.80
13322;DHT22;6730;46.248;6.930;2023-02-15T04:38:14;4.70;96.80
13322;DHT22;6730;46.248;6.930;2023-02-15T04:40:39;4.60;96.50
13322;DHT22;6730;46.248;6.930;2023-02-15T04:43:05;4.50;96.60
13322;DHT22;6730;46.248;6.930;2023-02-15T04:45:34;4.80;96.50
13322;DHT22;6730;46.248;6.930;2023-02-15T04:47:59;4.90;96.10
13322;DHT22;6730;46.248;6.930;2023-02-15T04:50:25;4.80;96.30
13322;DHT22;6730;46.248;6.930;2023-02-15T04:52:50;4.80;96.30
13322;DHT22;6730;46.248;6.930;2023-02-15T04:55:16;5.10;95.80
13322;DHT22;6730;46.248;6.930;2023-02-15T04:57:42;5.30;95.40
13322;DHT22;6730;46.248;6.930;2023-02-15T05:00:08;5.30;95.60
13322;DHT22;6730;46.248;6.930;2023-02-15T05:02:34;5.10;96.30
13322;DHT22;6730;46.248;6.930;2023-02-15T05:04:59;4.70;96.50
13322;DHT22;6730;46.248;6.930;2023-02-15T05:07:25;4.50;96.70
13322;DHT22;6730;46.248;6.930;2023-02-15T05:09:51;4.50;96.90
13322;DHT22;6730;46.248;6.930;2023-02-15T05:12:16;4.40;97.10
13322;DHT22;6730;46.248;6.930;2023-02-15T05:14:42;4.60;96.60
13322;DHT22;6730;46.248;6.930;2023-02-15T05:17:07;4.90;96.20
13322;DHT22;6730;46.248;6.930;2023-02-15T05:19:33;5.20;95.60
13322;DHT22;6730;46.248;6.930;2023-02-15T05:21:59;5.10;95.80
13322;DHT22;6730;46.248;6.930;2023-02-15T05:24:24;4.70;96.40
13322;DHT22;6730;46.248;6.930;2023-02-15T05:27:12;4.90;96.20
13322;DHT22;6730;46.248;6.930;2023-02-15T05:29:56;4.80;96.00
13322;DHT22;6730;46.248;6.930;2023-02-15T05:32:22;4.50;96.50
13322;DHT22;6730;46.248;6.930;2023-02-15T05:34:48;4.20;96.90
13322;DHT22;6730;46.248;6.930;2023-02-15T05:37:13;4.40;96.90
13322;DHT22;6730;46.248;6.930;2023-02-15T05:39:39;4.40;96.70
13322;DHT22;6730;46.248;6.930;2023-02-15T05:42:04;4.00;97.20
13322;DHT22;6730;46.248;6.930;2023-02-15T05:44:31;3.90;97.70
13322;DHT22;6730;46.248;6.930;2023-02-15T05:46:56;3.70;97.90
13322;DHT22;6730;46.248;6.930;2023-02-15T05:49:22;3.60;98.20
13322;DHT22;6730;46.248;6.930;2023-02-15T05:51:48;3.60;98.20
13322;DHT22;6730;46.248;6.930;2023-02-15T05:54:14;3.70;97.80
13322;DHT22;6730;46.248;6.930;2023-02-15T05:56:43;3.90;97.50
13322;DHT22;6730;46.248;6.930;2023-02-15T05:59:10;4.10;97.00
13322;DHT22;6730;46.248;6.930;2023-02-15T06:01:36;4.40;96.80
13322;DHT22;6730;46.248;6.930;2023-02-15T06:04:01;4.70;96.30
13322;DHT22;6730;46.248;6.930;2023-02-15T06:06:27;4.70;96.30
13322;DHT22;6730;46.248;6.930;2023-02-15T06:08:52;4.20;97.00
13322;DHT22;6730;46.248;6.930;2023-02-15T06:11:18;3.90;97.70
13322;DHT22;6730;46.248;6.930;2023-02-15T06:13:44;3.70;98.00
13322;DHT22;6730;46.248;6.930;2023-02-15T06:16:09;3.80;98.00
13322;DHT22;6730;46.248;6.930;2023-02-15T06:18:35;4.20;97.30
13322;DHT22;6730;46.248;6.930;2023-02-15T06:21:01;4.20;97.10
13322;DHT22;6730;46.248;6.930;2023-02-15T06:23:26;4.50;96.90
13322;DHT22;6730;46.248;6.930;2023-02-15T06:25:52;4.40;97.00
13322;DHT22;6730;46.248;6.930;2023-02-15T06:28:18;4.40;96.40
13322;DHT22;6730;46.248;6.930;2023-02-15T06:30:43;4.30;96.70
13322;DHT22;6730;46.248;6.930;2023-02-15T06:33:09;4.60;96.30
13322;DHT22;6730;46.248;6.930;2023-02-15T06:35:34;4.60;96.40
13322;DHT22;6730;46.248;6.930;2023-02-15T06:38:00;4.60;96.00
13322;DHT22;6730;46.248;6.930;2023-02-15T06:40:26;4.70;96.00
13322;DHT22;6730;46.248;6.930;2023-02-15T06:42:51;4.60;96.00
13322;DHT22;6730;46.248;6.930;2023-02-15T06:45:17;4.30;96.50
13322;DHT22;6730;46.248;6.930;2023-02-15T06:47:43;4.40;96.50
13322;DHT22;6730;46.248;6.930;2023-02-15T06:50:09;4.60;96.10
13322;DHT22;6730;46.248;6.930;2023-02-15T06:52:35;4.70;96.00
13322;DHT22;6730;46.248;6.930;2023-02-15T06:55:01;4.90;95.70
13322;DHT22;6730;46.248;6.930;2023-02-15T06:57:26;5.10;95.40
13322;DHT22;6730;46.248;6.930;2023-02-15T06:59:55;4.90;95.40
13322;DHT22;6730;46.248;6.930;2023-02-15T07:02:21;4.80;95.70
13322;DHT22;6730;46.248;6.930;2023-02-15T07:04:46;4.50;96.20
13322;DHT22;6730;46.248;6.930;2023-02-15T07:07:13;4.30;96.50
13322;DHT22;6730;46.248;6.930;2023-02-15T07:09:39;4.10;96.50
13322;DHT22;6730;46.248;6.930;2023-02-15T07:12:05;4.10;96.50
13322;DHT22;6730;46.248;6.930;2023-02-15T07:14:49;4.50;96.30
13322;DHT22;6730;46.248;6.930;2023-02-15T07:17:15;4.30;96.50
13322;DHT22;6730;46.248;6.930;2023-02-15T07:19:40;4.20;96.60
13322;DHT22;6730;46.248;6.930;2023-02-15T07:22:06;4.50;96.50
13322;DHT22;6730;46.248;6.930;2023-02-15T07:24:32;4.60;95.90
13322;DHT22;6730;46.248;6.930;2023-02-15T07:26:57;4.70;95.90
13322;DHT22;6730;46.248;6.930;2023-02-15T07:29:24;4.90;95.60
13322;DHT22;6730;46.248;6.930;2023-02-15T07:31:49;4.80;95.50
13322;DHT22;6730;46.248;6.930;2023-02-15T07:34:15;4.50;95.90
13322;DHT22;6730;46.248;6.930;2023-02-15T07:36:41;4.30;96.30
13322;DHT22;6730;46.248;6.930;2023-02-15T07:39:15;4.60;97.00
13322;DHT22;6730;46.248;6.930;2023-02-15T07:41:43;5.70;99.90
13322;DHT22;6730;46.248;6.930;2023-02-15T07:44:13;7.30;96.30
13322;DHT22;6730;46.248;6.930;2023-02-15T07:46:39;8.40;96.20
13322;DHT22;6730;46.248;6.930;2023-02-15T07:49:04;9.40;93.60
13322;DHT22;6730;46.248;6.930;2023-02-15T07:51:30;10.00;94.50
13322;DHT22;6730;46.248;6.930;2023-02-15T07:53:55;10.30;94.30
13322;DHT22;6730;46.248;6.930;2023-02-15T07:56:21;10.60;92.10
13322;DHT22;6730;46.248;6.930;2023-02-15T07:58:47;10.80;92.70
13322;DHT22;6730;46.248;6.930;2023-02-15T08:01:30;11.40;92.40
13322;DHT22;6730;46.248;6.930;2023-02-15T08:03:59;11.90;91.30
13322;DHT22;6730;46.248;6.930;2023-02-15T08:06:28;12.50;90.80
13322;DHT22;6730;46.248;6.930;2023-02-15T08:08:54;12.40;90.40
13322;DHT22;6730;46.248;6.930;2023-02-15T08:11:24;12.40;90.80
13322;DHT22;6730;46.248;6.930;2023-02-15T08:21:35;12.80;90.30
13322;DHT22;6730;46.248;6.930;2023-02-15T08:24:02;13.30;90.60
13322;DHT22;6730;46.248;6.930;2023-02-15T08:26:28;13.80;89.30
13322;DHT22;6730;46.248;6.930;2023-02-15T08:28:54;13.60;90.10
13322;DHT22;6730;46.248;6.930;2023-02-15T08:31:20;13.70;88.50
13322;DHT22;6730;46.248;6.930;2023-02-15T08:33:47;13.80;89.70
13322;DHT22;6730;46.248;6.930;2023-02-15T08:36:16;14.50;90.20
13322;DHT22;6730;46.248;6.930;2023-02-15T08:38:43;15.10;88.80
13322;DHT22;6730;46.248;6.930;2023-02-15T08:41:17;14.50;86.80
13322;DHT22;6730;46.248;6.930;2023-02-15T08:43:45;13.80;89.30
13322;DHT22;6730;46.248;6.930;2023-02-15T08:46:12;14.00;90.00
13322;DHT22;6730;46.248;6.930;2023-02-15T08:48:38;14.60;87.70
13322;DHT22;6730;46.248;6.930;2023-02-15T08:51:28;15.30;88.80
13322;DHT22;6730;46.248;6.930;2023-02-15T08:53:56;16.00;84.50
13322;DHT22;6730;46.248;6.930;2023-02-15T08:56:28;15.50;80.60
13322;DHT22;6730;46.248;6.930;2023-02-15T08:58:54;16.00;84.10
13322;DHT22;6730;46.248;6.930;2023-02-15T09:01:28;15.60;82.80
13322;DHT22;6730;46.248;6.930;2023-02-15T09:04:05;15.20;85.50
13322;DHT22;6730;46.248;6.930;2023-02-15T09:06:34;14.90;86.20
13322;DHT22;6730;46.248;6.930;2023-02-15T09:09:00;14.60;86.40
13322;DHT22;6730;46.248;6.930;2023-02-15T09:11:27;14.40;87.10
13322;DHT22;6730;46.248;6.930;2023-02-15T09:14:00;15.00;86.40
13322;DHT22;6730;46.248;6.930;2023-02-15T09:16:28;15.10;88.10
13322;DHT22;6730;46.248;6.930;2023-02-15T09:18:54;15.60;87.90
13322;DHT22;6730;46.248;6.930;2023-02-15T09:21:24;15.80;85.80
13322;DHT22;6730;46.248;6.930;2023-02-15T09:23:55;15.10;86.40
13322;DHT22;6730;46.248;6.930;2023-02-15T09:26:22;14.00;90.40
13322;DHT22;6730;46.248;6.930;2023-02-15T09:28:52;14.50;88.70
13322;DHT22;6730;46.248;6.930;2023-02-15T09:31:20;14.70;89.20
13322;DHT22;6730;46.248;6.930;2023-02-15T09:33:47;14.20;88.80
13322;DHT22;6730;46.248;6.930;2023-02-15T09:36:17;15.00;87.80
13322;DHT22;6730;46.248;6.930;2023-02-15T09:38:44;15.30;87.50
13322;DHT22;6730;46.248;6.930;2023-02-15T09:52:14;14.70;88.70
13322;DHT22;6730;46.248;6.930;2023-02-15T10:00:27;15.10;88.40
13322;DHT22;6730;46.248;6.930;2023-02-15T10:03:09;14.60;86.40
13322;DHT22;6730;46.248;6.930;2023-02-15T10:10:43;13.90;89.00
13322;DHT22;6730;46.248;6.930;2023-02-15T10:13:34;12.70;89.90
13322;DHT22;6730;46.248;6.930;2023-02-15T10:19:08;13.50;90.80
13322;DHT22;6730;46.248;6.930;2023-02-15T10:21:46;13.90;87.30
13322;DHT22;6730;46.248;6.930;2023-02-15T10:24:26;14.10;88.40
13322;DHT22;6730;46.248;6.930;2023-02-15T10:27:02;15.20;87.80
13322;DHT22;6730;46.248;6.930;2023-02-15T10:29:36;15.00;85.00
13322;DHT22;6730;46.248;6.930;2023-02-15T10:35:04;14.50;90.00
13322;DHT22;6730;46.248;6.930;2023-02-15T10:43:40;12.90;89.50
13322;DHT22;6730;46.248;6.930;2023-02-15T10:46:26;13.30;89.80
13322;DHT22;6730;46.248;6.930;2023-02-15T10:57:04;13.60;89.50
13322;DHT22;6730;46.248;6.930;2023-02-15T10:59:36;12.70;90.70
13322;DHT22;6730;46.248;6.930;2023-02-15T11:08:09;13.30;90.20
13322;DHT22;6730;46.248;6.930;2023-02-15T11:13:26;13.60;88.90
13322;DHT22;6730;46.248;6.930;2023-02-15T11:16:04;13.30;88.20
13322;DHT22;6730;46.248;6.930;2023-02-15T11:21:20;14.00;88.30
13322;DHT22;6730;46.248;6.930;2023-02-15T11:23:48;13.20;88.70
13322;DHT22;6730;46.248;6.930;2023-02-15T11:28:59;13.30;89.00
13322;DHT22;6730;46.248;6.930;2023-02-15T11:31:34;13.00;90.20
13322;DHT22;6730;46.248;6.930;2023-02-15T11:34:10;11.90;90.40
13322;DHT22;6730;46.248;6.930;2023-02-15T11:36:40;11.80;92.00
13322;DHT22;6730;46.248;6.930;2023-02-15T11:39:11;12.10;90.30
13322;DHT22;6730;46.248;6.930;2023-02-15T11:41:41;12.00;91.10
13322;DHT22;6730;46.248;6.930;2023-02-15T11:44:16;11.80;90.80
13322;DHT22;6730;46.248;6.930;2023-02-15T11:46:43;11.90;90.50
13322;DHT22;6730;46.248;6.930;2023-02-15T11:49:23;12.10;91.30
13322;DHT22;6730;46.248;6.930;2023-02-15T11:51:50;12.00;91.20
13322;DHT22;6730;46.248;6.930;2023-02-15T11:54:18;12.10;90.90
13322;DHT22;6730;46.248;6.930;2023-02-15T11:56:46;11.20;91.20
13322;DHT22;6730;46.248;6.930;2023-02-15T11:59:18;12.10;91.20
13322;DHT22;6730;46.248;6.930;2023-02-15T12:01:50;12.40;91.40
13322;DHT22;6730;46.248;6.930;2023-02-15T12:07:21;12.30;90.70
13322;DHT22;6730;46.248;6.930;2023-02-15T12:10:05;12.10;90.90
13322;DHT22;6730;46.248;6.930;2023-02-15T12:12:39;11.80;91.50
13322;DHT22;6730;46.248;6.930;2023-02-15T12:15:08;11.40;91.60
13322;DHT22;6730;46.248;6.930;2023-02-15T12:17:39;11.30;91.60
13322;DHT22;6730;46.248;6.930;2023-02-15T12:22:49;11.90;91.20
13322;DHT22;6730;46.248;6.930;2023-02-15T12:28:42;11.90;91.30
13322;DHT22;6730;46.248;6.930;2023-02-15T12:33:50;11.20;91.70
13322;DHT22;6730;46.248;6.930;2023-02-15T12:36:29;11.60;92.10
13322;DHT22;6730;46.248;6.930;2023-02-15T12:39:27;12.00;92.00
13322;DHT22;6730;46.248;6.930;2023-02-15T12:44:24;11.80;91.90
13322;DHT22;6730;46.248;6.930;2023-02-15T12:49:25;11.50;93.30
13322;DHT22;6730;46.248;6.930;2023-02-15T12:51:53;11.60;92.90
13322;DHT22;6730;46.248;6.930;2023-02-15T12:56:47;11.80;93.80
13322;DHT22;6730;46.248;6.930;2023-02-15T12:59:14;11.70;94.10
13322;DHT22;6730;46.248;6.930;2023-02-15T13:01:41;11.20;94.40
13322;DHT22;6730;46.248;6.930;2023-02-15T13:06:49;11.00;94.40
13322;DHT22;6730;46.248;6.930;2023-02-15T13:11:48;11.00;94.60
13322;DHT22;6730;46.248;6.930;2023-02-15T13:16:48;10.70;95.20
13322;DHT22;6730;46.248;6.930;2023-02-15T13:19:26;10.60;95.40
13322;DHT22;6730;46.248;6.930;2023-02-15T13:21:54;10.70;95.10
13322;DHT22;6730;46.248;6.930;2023-02-15T13:26:54;11.00;95.60
13322;DHT22;6730;46.248;6.930;2023-02-15T13:29:29;10.60;95.80
13322;DHT22;6730;46.248;6.930;2023-02-15T13:31:57;10.70;95.40
13322;DHT22;6730;46.248;6.930;2023-02-15T13:34:36;10.70;96.30
13322;DHT22;6730;46.248;6.930;2023-02-15T13:40:10;10.10;96.10
13322;DHT22;6730;46.248;6.930;2023-02-15T13:42:41;10.30;96.80
13322;DHT22;6730;46.248;6.930;2023-02-15T14:01:10;10.00;96.80
13322;DHT22;6730;46.248;6.930;2023-02-15T14:21:20;9.50;97.40
13322;DHT22;6730;46.248;6.930;2023-02-15T14:24:23;9.50;98.10
13322;DHT22;6730;46.248;6.930;2023-02-15T14:26:59;9.40;98.70
13322;DHT22;6730;46.248;6.930;2023-02-15T14:32:16;9.10;98.90
13322;DHT22;6730;46.248;6.930;2023-02-15T14:34:53;9.10;99.10
13322;DHT22;6730;46.248;6.930;2023-02-15T14:40:34;9.30;98.90
13322;DHT22;6730;46.248;6.930;2023-02-15T14:48:49;9.80;98.00
13322;DHT22;6730;46.248;6.930;2023-02-15T14:54:08;9.90;97.30
13322;DHT22;6730;46.248;6.930;2023-02-15T14:56:34;10.00;96.70
13322;DHT22;6730;46.248;6.930;2023-02-15T14:59:21;10.10;96.50
13322;DHT22;6730;46.248;6.930;2023-02-15T15:01:57;10.00;96.90
13322;DHT22;6730;46.248;6.930;2023-02-15T15:04:37;10.20;97.10
13322;DHT22;6730;46.248;6.930;2023-02-15T15:09:40;11.20;94.10
13322;DHT22;6730;46.248;6.930;2023-02-15T15:14:47;11.20;94.40
13322;DHT22;6730;46.248;6.930;2023-02-15T15:22:28;12.00;94.00
13322;DHT22;6730;46.248;6.930;2023-02-15T15:24:56;11.80;93.80
13322;DHT22;6730;46.248;6.930;2023-02-15T15:27:48;11.60;93.90
13322;DHT22;6730;46.248;6.930;2023-02-15T15:46:53;10.90;93.80
13322;DHT22;6730;46.248;6.930;2023-02-15T15:49:28;10.90;93.90
13322;DHT22;6730;46.248;6.930;2023-02-15T15:52:02;10.90;93.10
13322;DHT22;6730;46.248;6.930;2023-02-15T15:54:28;10.90;93.60
13322;DHT22;6730;46.248;6.930;2023-02-15T15:57:02;10.80;93.60
13322;DHT22;6730;46.248;6.930;2023-02-15T15:59:34;10.70;93.30
13322;DHT22;6730;46.248;6.930;2023-02-15T16:02:13;10.90;93.50
13322;DHT22;6730;46.248;6.930;2023-02-15T16:04:43;10.70;93.60
13322;DHT22;6730;46.248;6.930;2023-02-15T16:10:38;10.30;93.90
13322;DHT22;6730;46.248;6.930;2023-02-15T16:12:47;10.30;93.60
13322;DHT22;6730;46.248;6.930;2023-02-15T16:15:16;10.30;93.80
13322;DHT22;6730;46.248;6.930;2023-02-15T16:17:49;10.30;93.30
13322;DHT22;6730;46.248;6.930;2023-02-15T16:20:26;10.00;93.80
13322;DHT22;6730;46.248;6.930;2023-02-15T16:23:30;9.70;93.80
13322;DHT22;6730;46.248;6.930;2023-02-15T16:28:51;10.00;94.50
13322;DHT22;6730;46.248;6.930;2023-02-15T16:33:48;10.30;94.00
13322;DHT22;6730;46.248;6.930;2023-02-15T16:36:28;10.20;93.90
13322;DHT22;6730;46.248;6.930;2023-02-15T16:41:25;9.90;94.10
13322;DHT22;6730;46.248;6.930;2023-02-15T16:43:54;9.60;93.80
13322;DHT22;6730;46.248;6.930;2023-02-15T16:46:41;9.60;94.10
13322;DHT22;6730;46.248;6.930;2023-02-15T16:49:16;9.30;93.80
13322;DHT22;6730;46.248;6.930;2023-02-15T16:51:43;9.10;93.90
13322;DHT22;6730;46.248;6.930;2023-02-15T16:54:19;9.00;93.90
13322;DHT22;6730;46.248;6.930;2023-02-15T16:56:46;9.10;93.80
13322;DHT22;6730;46.248;6.930;2023-02-15T17:01:56;8.90;93.50
13322;DHT22;6730;46.248;6.930;2023-02-15T17:07:14;8.90;94.10
13322;DHT22;6730;46.248;6.930;2023-02-15T17:09:50;8.90;93.70
13322;DHT22;6730;46.248;6.930;2023-02-15T17:12:53;8.90;93.70
13322;DHT22;6730;46.248;6.930;2023-02-15T17:15:35;8.90;93.40
13322;DHT22;6730;46.248;6.930;2023-02-15T17:18:25;8.80;93.40
13322;DHT22;6730;46.248;6.930;2023-02-15T17:20:54;8.80;93.50
13322;DHT22;6730;46.248;6.930;2023-02-15T17:23:22;8.80;93.40
13322;DHT22;6730;46.248;6.930;2023-02-15T17:25:51;9.00;93.40
13322;DHT22;6730;46.248;6.930;2023-02-15T17:28:30;8.80;93.20
13322;DHT22;6730;46.248;6.930;2023-02-15T17:30:57;8.60;93.30
13322;DHT22;6730;46.248;6.930;2023-02-15T17:38:32;8.40;93.50
13322;DHT22;6730;46.248;6.930;2023-02-15T17:40:58;8.40;93.40
13322;DHT22;6730;46.248;6.930;2023-02-15T17:43:25;8.70;93.30
13322;DHT22;6730;46.248;6.930;2023-02-15T17:45:51;8.70;93.20
13322;DHT22;6730;46.248;6.930;2023-02-15T17:48:40;8.60;93.30
13322;DHT22;6730;46.248;6.930;2023-02-15T17:51:09;8.80;93.20
13322;DHT22;6730;46.248;6.930;2023-02-15T17:53:36;8.80;93.10
13322;DHT22;6730;46.248;6.930;2023-02-15T17:56:02;8.90;93.10
13322;DHT22;6730;46.248;6.930;2023-02-15T17:58:35;8.70;93.30
13322;DHT22;6730;46.248;6.930;2023-02-15T18:01:04;8.70;93.40
13322;DHT22;6730;46.248;6.930;2023-02-15T18:03:51;8.60;93.30
13322;DHT22;6730;46.248;6.930;2023-02-15T18:06:38;8.40;93.60
13322;DHT22;6730;46.248;6.930;2023-02-15T18:09:23;8.50;93.60
13322;DHT22;6730;46.248;6.930;2023-02-15T18:12:30;8.60;93.30
13322;DHT22;6730;46.248;6.930;2023-02-15T18:14:57;8.60;93.30
13322;DHT22;6730;46.248;6.930;2023-02-15T18:17:27;8.50;93.40
13322;DHT22;6730;46.248;6.930;2023-02-15T18:19:54;8.40;93.40
13322;DHT22;6730;46.248;6.930;2023-02-15T18:22:20;8.50;93.30
13322;DHT22;6730;46.248;6.930;2023-02-15T18:24:47;8.30;93.20
13322;DHT22;6730;46.248;6.930;2023-02-15T18:27:14;8.30;93.40
13322;DHT22;6730;46.248;6.930;2023-02-15T18:29:40;8.20;93.20
13322;DHT22;6730;46.248;6.930;2023-02-15T18:32:08;8.00;93.10
13322;DHT22;6730;46.248;6.930;2023-02-15T18:34:39;8.00;93.10
13322;DHT22;6730;46.248;6.930;2023-02-15T18:37:09;8.10;93.20
13322;DHT22;6730;46.248;6.930;2023-02-15T18:39:45;8.10;93.00
13322;DHT22;6730;46.248;6.930;2023-02-15T18:42:23;8.00;93.30
13322;DHT22;6730;46.248;6.930;2023-02-15T18:44:54;8.10;93.40
13322;DHT22;6730;46.248;6.930;2023-02-15T18:47:20;8.10;93.50
13322;DHT22;6730;46.248;6.930;2023-02-15T18:49:45;8.10;93.30
13322;DHT22;6730;46.248;6.930;2023-02-15T18:52:20;8.00;93.50
13322;DHT22;6730;46.248;6.930;2023-02-15T18:54:48;8.00;93.60
13322;DHT22;6730;46.248;6.930;2023-02-15T18:57:15;8.00;93.60
13322;DHT22;6730;46.248;6.930;2023-02-15T18:59:41;8.10;93.60
13322;DHT22;6730;46.248;6.930;2023-02-15T19:02:17;8.10;93.50
13322;DHT22;6730;46.248;6.930;2023-02-15T19:04:45;8.20;93.50
13322;DHT22;6730;46.248;6.930;2023-02-15T19:07:20;8.20;93.50
13322;DHT22;6730;46.248;6.930;2023-02-15T19:09:49;8.10;93.50
13322;DHT22;6730;46.248;6.930;2023-02-15T19:12:15;8.10;93.50
13322;DHT22;6730;46.248;6.930;2023-02-15T19:14:41;8.10;93.60
13322;DHT22;6730;46.248;6.930;2023-02-15T19:17:14;8.20;93.60
13322;DHT22;6730;46.248;6.930;2023-02-15T19:19:40;8.30;93.30
13322;DHT22;6730;46.248;6.930;2023-02-15T19:22:16;8.10;93.40
13322;DHT22;6730;46.248;6.930;2023-02-15T19:24:45;8.00;93.50
13322;DHT22;6730;46.248;6.930;2023-02-15T19:27:34;8.00;93.50
13322;DHT22;6730;46.248;6.930;2023-02-15T19:30:03;7.90;93.60
13322;DHT22;6730;46.248;6.930;2023-02-15T19:32:29;8.00;93.60
13322;DHT22;6730;46.248;6.930;2023-02-15T19:34:56;8.00;93.70
13322;DHT22;6730;46.248;6.930;2023-02-15T19:37:27;7.90;93.90
13322;DHT22;6730;46.248;6.930;2023-02-15T19:39:56;8.10;93.70
13322;DHT22;6730;46.248;6.930;2023-02-15T19:42:23;8.10;93.40
13322;DHT22;6730;46.248;6.930;2023-02-15T19:44:49;8.10;93.40
13322;DHT22;6730;46.248;6.930;2023-02-15T19:47:16;8.00;93.40
13322;DHT22;6730;46.248;6.930;2023-02-15T19:49:42;8.00;93.50
13322;DHT22;6730;46.248;6.930;2023-02-15T19:52:19;7.90;93.60
13322;DHT22;6730;46.248;6.930;2023-02-15T19:54:48;8.00;93.50
13322;DHT22;6730;46.248;6.930;2023-02-15T19:57:14;8.00;93.50
13322;DHT22;6730;46.248;6.930;2023-02-15T19:59:40;7.90;93.40
13322;DHT22;6730;46.248;6.930;2023-02-15T20:02:06;7.90;93.40